createdAt,value
2023-01-11T00:00:00.000Z,2.54
2023-01-11T00:15:00.000Z,2.55
2023-01-11T00:30:00.000Z,2.55
2023-01-11T00:45:00.000Z,2.68
2023-01-11T01:00:00.000Z,2.84
2023-01-11T01:15:00.000Z,3.11
2023-01-11T01:30:00.000Z,3.29
2023-01-11T01:45:00.000Z,3.39
2023-01-11T02:00:00.000Z,3.48
2023-01-11T02:15:00.000Z,3.46
2023-01-11T02:30:00.000Z,3.58
2023-01-11T02:45:00.000Z,3.71
2023-01-11T03:00:00.000Z,3.81
2023-01-11T03:15:00.000Z,3.79
2023-01-11T03:30:00.000Z,3.85
2023-01-11T03:45:00.000Z,3.88
2023-01-11T04:00:00.000Z,4
2023-01-11T04:15:00.000Z,4.08
2023-01-11T04:30:00.000Z,4.11
2023-01-11T04:45:00.000Z,4.16
2023-01-11T05:00:00.000Z,4.05
2023-01-11T05:15:00.000Z,3.52
2023-01-11T05:30:00.000Z,3.21
2023-01-11T05:45:00.000Z,3.16
2023-01-11T06:00:00.000Z,3.18
2023-01-11T06:15:00.000Z,3.28
2023-01-11T06:30:00.000Z,3.73
2023-01-11T06:45:00.000Z,4.02
2023-01-11T07:00:00.000Z,4.04
2023-01-11T07:15:00.000Z,4.37
2023-01-11T07:30:00.000Z,4.73
2023-01-11T07:45:00.000Z,5.02
2023-01-11T08:00:00.000Z,5.27
2023-01-11T08:15:00.000Z,5.5
2023-01-11T08:30:00.000Z,5.79
2023-01-11T08:45:00.000Z,6
2023-01-11T09:00:00.000Z,6.37
2023-01-11T09:15:00.000Z,6.67
2023-01-11T09:30:00.000Z,6.99
2023-01-11T09:45:00.000Z,7.17
2023-01-11T10:00:00.000Z,7.29
2023-01-11T10:15:00.000Z,7.57
2023-01-11T10:30:00.000Z,7.99
2023-01-11T10:45:00.000Z,8.44
2023-01-11T11:00:00.000Z,8.65
2023-01-11T11:15:00.000Z,8.88
2023-01-11T11:30:00.000Z,9.01
2023-01-11T11:45:00.000Z,8.93
2023-01-11T12:00:00.000Z,8.98
2023-01-11T12:15:00.000Z,9.31
2023-01-11T12:30:00.000Z,9.57
2023-01-11T12:45:00.000Z,9.68
2023-01-11T13:00:00.000Z,9.67
2023-01-11T13:15:00.000Z,9.54
2023-01-11T13:30:00.000Z,9.31
2023-01-11T13:45:00.000Z,9.2
2023-01-11T14:00:00.000Z,9.09
2023-01-11T14:15:00.000Z,9.08
2023-01-11T14:30:00.000Z,9.09
2023-01-11T14:45:00.000Z,8.98
2023-01-11T15:00:00.000Z,8.93
2023-01-11T15:15:00.000Z,8.88
2023-01-11T15:30:00.000Z,8.79
2023-01-11T15:45:00.000Z,8.81
2023-01-11T16:00:00.000Z,8.74
2023-01-11T16:15:00.000Z,8.67
2023-01-11T16:30:00.000Z,8.68
2023-01-11T16:45:00.000Z,8.45
2023-01-11T17:00:00.000Z,8.27
2023-01-11T17:15:00.000Z,8.03
2023-01-11T17:30:00.000Z,7.85
2023-01-11T17:45:00.000Z,7.69
2023-01-11T18:00:00.000Z,7.58
2023-01-11T18:15:00.000Z,7.56
2023-01-11T18:30:00.000Z,7.43
2023-01-11T18:45:00.000Z,7.1
2023-01-11T19:00:00.000Z,7.08
2023-01-11T19:15:00.000Z,7.01
2023-01-11T19:30:00.000Z,6.95
2023-01-11T19:45:00.000Z,6.93
2023-01-11T20:00:00.000Z,6.9
2023-01-11T20:15:00.000Z,6.85
2023-01-11T20:30:00.000Z,6.9
2023-01-11T20:45:00.000Z,6.95
2023-01-11T21:00:00.000Z,6.91
2023-01-11T21:15:00.000Z,7.01
2023-01-11T21:30:00.000Z,7.16
2023-01-11T21:45:00.000Z,7.39
2023-01-11T22:00:00.000Z,7.36
2023-01-11T22:15:00.000Z,7.57
2023-01-11T22:30:00.000Z,7.13
2023-01-11T22:45:00.000Z,6.91
2023-01-11T23:00:00.000Z,6.96
2023-01-11T23:15:00.000Z,6.98
2023-01-11T23:30:00.000Z,6.99
2023-01-11T23:45:00.000Z,6.84
